createdAt,value
2018-01-19T00:00:29.913Z,0
2018-01-19T00:01:29.925Z,0
2018-01-19T00:02:29.940Z,0
2018-01-19T00:03:29.945Z,0
2018-01-19T00:04:44.144Z,0
2018-01-19T00:05:29.944Z,0
2018-01-19T00:06:29.959Z,0
2018-01-19T00:07:29.995Z,0
2018-01-19T00:08:29.519Z,0
2018-01-19T00:09:29.787Z,0
2018-01-19T00:10:30.180Z,0
2018-01-19T00:11:30.058Z,0
2018-01-19T00:12:29.916Z,0
2018-01-19T00:13:44.757Z,0
2018-01-19T00:14:30.088Z,0
2018-01-19T00:15:29.863Z,0
2018-01-19T00:16:30.168Z,0
2018-01-19T00:18:29.908Z,0
2018-01-19T00:19:44.862Z,0
2018-01-19T00:20:30.036Z,0
2018-01-19T00:21:29.944Z,0
2018-01-19T00:22:29.962Z,0
2018-01-19T00:23:30.242Z,0
2018-01-19T00:25:44.932Z,0
2018-01-19T00:26:30.242Z,0
2018-01-19T00:27:30.401Z,0
2018-01-19T00:28:30.414Z,0
2018-01-19T00:29:44.984Z,0
2018-01-19T00:30:30.326Z,0
2018-01-19T00:31:29.848Z,0
2018-01-19T00:32:30.349Z,0
2018-01-19T00:33:30.095Z,0
2018-01-19T00:34:30.473Z,0
2018-01-19T00:35:30.143Z,0
2018-01-19T00:36:30.163Z,0
2018-01-19T00:37:30.439Z,0
2018-01-19T00:38:44.887Z,0
2018-01-19T00:39:30.453Z,0
2018-01-19T00:40:30.443Z,0
2018-01-19T00:41:30.230Z,0
2018-01-19T00:43:30.513Z,0
2018-01-19T00:44:45.185Z,0
2018-01-19T00:45:30.276Z,0
2018-01-19T00:46:30.537Z,0
2018-01-19T00:47:30.324Z,0
2018-01-19T00:48:30.679Z,0
2018-01-19T00:49:30.085Z,0
2018-01-19T00:50:30.346Z,0
2018-01-19T00:51:30.635Z,0
2018-01-19T00:52:30.633Z,0
2018-01-19T00:53:45.079Z,0
2018-01-19T00:54:30.669Z,0
2018-01-19T00:55:30.435Z,0
2018-01-19T00:56:30.696Z,0
2018-01-19T00:57:30.439Z,0
2018-01-19T00:58:30.741Z,0
2018-01-19T00:59:29.981Z,0
2018-01-19T01:00:30.486Z,0
2018-01-19T01:01:30.784Z,0
2018-01-19T01:02:30.792Z,0
2018-01-19T01:04:30.558Z,0
2018-01-19T01:05:30.817Z,0
2018-01-19T01:06:30.363Z,0
2018-01-19T01:07:30.968Z,0
2018-01-19T01:08:30.849Z,0
2018-01-19T01:09:30.930Z,0
2018-01-19T01:10:30.649Z,0
2018-01-19T01:11:45.594Z,0
2018-01-19T01:13:45.706Z,0
2018-01-19T01:14:30.958Z,0
2018-01-19T01:15:30.962Z,0
2018-01-19T01:16:45.738Z,0
2018-01-19T01:17:30.753Z,0
2018-01-19T01:18:31.035Z,0
2018-01-19T01:19:30.771Z,0
2018-01-19T01:20:31.041Z,0
2018-01-19T01:21:31.058Z,0
2018-01-19T01:22:30.836Z,0
2018-01-19T01:23:30.849Z,0
2018-01-19T01:24:45.606Z,0
2018-01-19T01:25:31.096Z,0
2018-01-19T01:26:30.895Z,0
2018-01-19T01:27:31.165Z,0
2018-01-19T01:28:31.191Z,0
2018-01-19T01:29:31.208Z,0
2018-01-19T01:30:30.936Z,0
2018-01-19T01:31:30.923Z,0
2018-01-19T01:32:45.881Z,0
2018-01-19T01:33:45.929Z,0
2018-01-19T01:34:31.242Z,0
2018-01-19T01:35:31.255Z,0
2018-01-19T01:36:31.272Z,0
2018-01-19T01:37:45.984Z,0
2018-01-19T01:38:31.052Z,0
2018-01-19T01:39:31.341Z,0
2018-01-19T01:40:31.328Z,0
2018-01-19T01:41:31.436Z,0
2018-01-19T01:42:46.040Z,0
2018-01-19T01:43:31.116Z,0
2018-01-19T01:44:30.884Z,0
2018-01-19T01:45:31.403Z,0
2018-01-19T01:46:31.408Z,0
2018-01-19T01:47:31.230Z,0
2018-01-19T01:48:46.099Z,0
2018-01-19T01:49:31.066Z,0
2018-01-19T01:50:31.502Z,0
2018-01-19T01:51:31.600Z,0
2018-01-19T01:53:31.494Z,0
2018-01-19T01:54:31.635Z,0
2018-01-19T01:55:31.559Z,0
2018-01-19T01:56:46.331Z,0
2018-01-19T01:57:31.559Z,0
2018-01-19T01:59:31.359Z,0
2018-01-19T02:01:46.294Z,0
2018-01-19T02:02:31.395Z,0
2018-01-19T02:03:31.662Z,0
2018-01-19T02:04:46.327Z,0
2018-01-19T02:06:30.928Z,0
2018-01-19T02:07:31.555Z,0
2018-01-19T02:08:31.725Z,0
2018-01-19T02:09:31.760Z,0
2018-01-19T02:10:31.486Z,0
2018-01-19T02:11:31.776Z,0
2018-01-19T02:12:31.551Z,0
2018-01-19T02:13:31.797Z,0
2018-01-19T02:14:31.552Z,0
2018-01-19T02:15:31.827Z,0
2018-01-19T02:16:31.589Z,0
2018-01-19T02:17:46.532Z,0
2018-01-19T02:18:31.974Z,0
2018-01-19T02:19:46.544Z,0
2018-01-19T02:20:31.921Z,0
2018-01-19T02:21:31.938Z,0
2018-01-19T02:22:31.699Z,0
2018-01-19T02:23:31.789Z,0
2018-01-19T02:24:46.642Z,0
2018-01-19T02:25:31.980Z,0
2018-01-19T02:26:32.004Z,0
2018-01-19T02:27:46.418Z,0
2018-01-19T02:28:31.777Z,0
2018-01-19T02:29:46.726Z,0
2018-01-19T02:30:31.902Z,0
2018-01-19T02:34:32.093Z,0
2018-01-19T02:35:32.314Z,0
2018-01-19T02:36:32.115Z,0
2018-01-19T02:37:31.890Z,0
2018-01-19T02:38:31.638Z,0
2018-01-19T02:39:32.159Z,0
2018-01-19T02:40:32.208Z,0
2018-01-19T02:41:46.613Z,0
2018-01-19T02:42:32.198Z,0
2018-01-19T02:43:32.232Z,0
2018-01-19T02:44:32.245Z,0
2018-01-19T02:45:32.276Z,0
2018-01-19T02:46:32.287Z,0
2018-01-19T02:47:32.310Z,0
2018-01-19T02:49:47.109Z,0
2018-01-19T02:51:46.791Z,0
2018-01-19T02:52:32.090Z,0
2018-01-19T02:53:32.410Z,0
2018-01-19T02:54:32.132Z,0
2018-01-19T02:55:32.148Z,0
2018-01-19T02:56:32.441Z,0
2018-01-19T02:57:47.201Z,0
2018-01-19T02:58:32.468Z,0
2018-01-19T02:59:32.474Z,0
2018-01-19T03:00:32.480Z,0
2018-01-19T03:01:32.519Z,0
2018-01-19T03:02:32.518Z,0
2018-01-19T03:03:32.518Z,0
2018-01-19T03:04:32.144Z,0
2018-01-19T03:05:46.961Z,0
2018-01-19T03:06:32.582Z,0
2018-01-19T03:07:47.259Z,0
2018-01-19T03:08:32.340Z,0
2018-01-19T03:09:32.602Z,0
2018-01-19T03:10:32.343Z,0
2018-01-19T03:11:32.655Z,0
2018-01-19T03:12:32.371Z,0
2018-01-19T03:13:32.701Z,0
2018-01-19T03:14:32.414Z,0
2018-01-19T03:15:32.684Z,0
2018-01-19T03:16:32.806Z,0
2018-01-19T03:17:46.903Z,0
2018-01-19T03:18:32.474Z,0
2018-01-19T03:19:32.762Z,0
2018-01-19T03:20:32.735Z,0
2018-01-19T03:21:32.770Z,0
2018-01-19T03:23:47.476Z,0
2018-01-19T03:24:32.853Z,0
2018-01-19T03:25:32.842Z,0
2018-01-19T03:26:32.863Z,0
2018-01-19T03:27:32.861Z,0
2018-01-19T03:28:32.866Z,0
2018-01-19T03:29:32.941Z,0
2018-01-19T03:30:47.592Z,0
2018-01-19T03:31:32.930Z,0
2018-01-19T03:32:32.677Z,0
2018-01-19T03:33:32.985Z,0
2018-01-19T03:34:32.978Z,0
2018-01-19T03:35:32.731Z,0
2018-01-19T03:36:32.972Z,0
2018-01-19T03:37:32.995Z,0
2018-01-19T03:38:47.686Z,0
2018-01-19T03:39:47.800Z,0
2018-01-19T03:40:32.827Z,0
2018-01-19T03:42:33.062Z,0
2018-01-19T03:43:32.844Z,0
2018-01-19T03:44:32.890Z,0
2018-01-19T03:45:47.905Z,0
2018-01-19T03:46:32.889Z,0
2018-01-19T03:47:33.175Z,0
2018-01-19T03:50:47.871Z,0
2018-01-19T03:51:33.204Z,0
2018-01-19T03:52:33.007Z,0
2018-01-19T03:53:33.221Z,0
2018-01-19T03:54:47.941Z,0
2018-01-19T03:55:32.997Z,0
2018-01-19T03:56:33.011Z,0
2018-01-19T03:57:33.031Z,0
2018-01-19T03:58:33.328Z,0
2018-01-19T03:59:33.340Z,0
2018-01-19T04:00:33.422Z,0
2018-01-19T04:01:33.108Z,0
2018-01-19T04:02:33.138Z,0
2018-01-19T04:03:33.141Z,0
2018-01-19T04:05:33.178Z,0
2018-01-19T04:06:47.862Z,0
2018-01-19T04:07:33.186Z,0
2018-01-19T04:08:33.204Z,0
2018-01-19T04:09:33.197Z,0
2018-01-19T04:10:47.895Z,0
2018-01-19T04:11:33.232Z,0
2018-01-19T04:12:33.523Z,0
2018-01-19T04:13:33.021Z,0
2018-01-19T04:14:33.519Z,0
2018-01-19T04:15:33.545Z,0
2018-01-19T04:16:33.571Z,0
2018-01-19T04:17:33.318Z,0
2018-01-19T04:19:33.375Z,0
2018-01-19T04:20:48.324Z,0
2018-01-19T04:21:33.675Z,0
2018-01-19T04:22:33.388Z,0
2018-01-19T04:23:32.932Z,0
2018-01-19T04:25:33.443Z,0
2018-01-19T04:26:48.419Z,0
2018-01-19T04:27:33.231Z,0
2018-01-19T04:28:33.563Z,0
2018-01-19T04:29:33.530Z,0
2018-01-19T04:30:33.777Z,0
2018-01-19T04:31:33.560Z,0
2018-01-19T04:32:33.645Z,0
2018-01-19T04:33:33.839Z,0
2018-01-19T04:34:33.592Z,0
2018-01-19T04:35:33.865Z,0
2018-01-19T04:36:33.866Z,0
2018-01-19T04:37:48.562Z,0
2018-01-19T04:39:33.913Z,0
2018-01-19T04:40:33.930Z,0
2018-01-19T04:41:33.922Z,0
2018-01-19T04:42:48.364Z,0
2018-01-19T04:44:33.720Z,0
2018-01-19T04:45:33.492Z,0
2018-01-19T04:46:33.786Z,0
2018-01-19T04:47:34.029Z,0
2018-01-19T04:48:34.145Z,0
2018-01-19T04:49:48.473Z,0
2018-01-19T04:50:34.107Z,0
2018-01-19T04:51:33.835Z,0
2018-01-19T04:52:48.520Z,0
2018-01-19T04:53:34.109Z,0
2018-01-19T04:54:33.878Z,0
2018-01-19T04:55:48.897Z,0
2018-01-19T04:57:34.149Z,0
2018-01-19T04:59:34.065Z,0
2018-01-19T05:00:34.215Z,0
2018-01-19T05:01:33.958Z,0
2018-01-19T05:02:34.263Z,0
2018-01-19T05:03:34.242Z,0
2018-01-19T05:04:34.016Z,0
2018-01-19T05:05:34.269Z,0
2018-01-19T05:06:48.717Z,0
2018-01-19T05:07:34.319Z,0
2018-01-19T05:08:49.020Z,0
2018-01-19T05:09:49.031Z,0
2018-01-19T05:10:34.373Z,0
2018-01-19T05:11:48.787Z,0
2018-01-19T05:12:33.889Z,0
2018-01-19T05:13:34.381Z,0
2018-01-19T05:14:49.106Z,0
2018-01-19T05:15:34.429Z,0
2018-01-19T05:16:34.178Z,0
2018-01-19T05:17:34.469Z,0
2018-01-19T05:18:34.556Z,0
2018-01-19T05:19:34.476Z,0
2018-01-19T05:20:34.526Z,0
2018-01-19T05:21:34.275Z,0
2018-01-19T05:22:48.945Z,0
2018-01-19T05:23:34.561Z,0
2018-01-19T05:24:34.584Z,0
2018-01-19T05:26:34.322Z,0
2018-01-19T05:27:49.294Z,0
2018-01-19T05:29:49.314Z,0
2018-01-19T05:30:34.409Z,0
2018-01-19T05:31:34.703Z,0
2018-01-19T05:32:34.705Z,0
2018-01-19T05:34:34.714Z,0
2018-01-19T05:35:34.751Z,0
2018-01-19T05:36:34.731Z,0
2018-01-19T05:37:34.776Z,0
2018-01-19T05:38:34.541Z,0
2018-01-19T05:39:34.266Z,0
2018-01-19T05:40:34.818Z,0
2018-01-19T05:41:34.794Z,0
2018-01-19T05:42:34.851Z,0
2018-01-19T05:43:34.822Z,0
2018-01-19T05:45:49.580Z,0
2018-01-19T05:46:34.898Z,0
2018-01-19T05:47:34.912Z,0
2018-01-19T05:48:34.929Z,0
2018-01-19T05:49:34.427Z,0
2018-01-19T05:50:34.981Z,0
2018-01-19T05:51:34.976Z,0
2018-01-19T05:52:34.731Z,0
2018-01-19T05:53:34.987Z,0
2018-01-19T05:54:35.013Z,0
2018-01-19T05:55:49.732Z,0
2018-01-19T05:56:34.805Z,0
2018-01-19T05:57:34.785Z,0
2018-01-19T05:58:34.856Z,0
2018-01-19T05:59:34.834Z,0
2018-01-19T06:00:35.123Z,0
2018-01-19T06:01:49.535Z,0
2018-01-19T06:02:35.109Z,0
2018-01-19T06:03:35.008Z,0
2018-01-19T06:04:35.156Z,0
2018-01-19T06:05:34.948Z,0
2018-01-19T06:06:34.941Z,0
2018-01-19T06:07:35.206Z,0
2018-01-19T06:08:35.215Z,0
2018-01-19T06:09:34.989Z,0
2018-01-19T06:10:49.929Z,0
2018-01-19T06:11:35.007Z,0
2018-01-19T06:12:35.251Z,0
2018-01-19T06:13:35.294Z,0
2018-01-19T06:14:35.310Z,0
2018-01-19T06:15:35.071Z,0
2018-01-19T06:16:35.336Z,0
2018-01-19T06:18:35.094Z,0
2018-01-19T06:19:35.132Z,0
2018-01-19T06:20:35.407Z,0
2018-01-19T06:21:35.421Z,0
2018-01-19T06:22:35.155Z,0
2018-01-19T06:23:35.191Z,0
2018-01-19T06:24:35.552Z,0
2018-01-19T06:25:35.236Z,0
2018-01-19T06:26:35.492Z,0
2018-01-19T06:27:35.233Z,0
2018-01-19T06:29:35.740Z,0
2018-01-19T06:30:35.522Z,0
2018-01-19T06:32:35.311Z,0
2018-01-19T06:34:35.573Z,4
2018-01-19T06:36:35.356Z,4
2018-01-19T06:37:35.682Z,4
2018-01-19T06:38:35.635Z,8
2018-01-19T06:39:35.698Z,8
2018-01-19T06:40:35.683Z,8
2018-01-19T06:41:50.121Z,8
2018-01-19T06:42:35.721Z,8
2018-01-19T06:43:35.760Z,8
2018-01-19T06:44:35.725Z,8
2018-01-19T06:45:35.764Z,12
2018-01-19T06:46:35.497Z,16
2018-01-19T06:47:50.447Z,20
2018-01-19T06:48:50.463Z,16
2018-01-19T06:49:50.505Z,20
2018-01-19T06:50:35.937Z,24
2018-01-19T06:51:35.981Z,24
2018-01-19T06:52:50.541Z,24
2018-01-19T06:53:35.854Z,24
2018-01-19T06:54:35.866Z,24
2018-01-19T06:55:35.898Z,24
2018-01-19T06:56:35.919Z,24
2018-01-19T06:58:35.970Z,28
2018-01-19T06:59:35.975Z,32
2018-01-19T07:00:36.000Z,36
2018-01-19T07:01:35.741Z,44
2018-01-19T07:02:35.806Z,52
2018-01-19T07:03:36.027Z,56
2018-01-19T07:04:50.744Z,68
2018-01-19T07:05:36.084Z,68
2018-01-19T07:06:36.060Z,80
2018-01-19T07:07:36.090Z,96
2018-01-19T07:08:36.089Z,96
2018-01-19T07:09:36.121Z,104
2018-01-19T07:11:35.874Z,100
2018-01-19T07:12:36.257Z,96
2018-01-19T07:13:36.163Z,112
2018-01-19T07:14:50.863Z,108
2018-01-19T07:16:36.192Z,108
2018-01-19T07:17:36.220Z,128
2018-01-19T07:18:50.955Z,160
2018-01-19T07:19:36.270Z,164
2018-01-19T07:20:36.243Z,164
2018-01-19T07:21:36.281Z,168
2018-01-19T07:22:36.312Z,172
2018-01-19T07:23:36.299Z,180
2018-01-19T07:24:36.345Z,244
2018-01-19T07:25:36.322Z,292
2018-01-19T07:26:36.456Z,348
2018-01-19T07:27:36.387Z,428
2018-01-19T07:28:51.079Z,468
2018-01-19T07:29:36.441Z,488
2018-01-19T07:30:50.840Z,524
2018-01-19T07:31:36.168Z,544
2018-01-19T07:32:50.878Z,612
2018-01-19T07:33:36.456Z,660
2018-01-19T07:34:36.205Z,700
2018-01-19T07:35:36.521Z,716
2018-01-19T07:36:50.922Z,736
2018-01-19T07:37:36.492Z,736
2018-01-19T07:38:36.529Z,724
2018-01-19T07:39:36.317Z,684
2018-01-19T07:40:36.649Z,628
2018-01-19T07:41:36.364Z,588
2018-01-19T07:42:36.346Z,548
2018-01-19T07:43:36.350Z,544
2018-01-19T07:44:36.625Z,524
2018-01-19T07:45:36.631Z,516
2018-01-19T07:46:50.815Z,528
2018-01-19T07:47:36.693Z,548
2018-01-19T07:48:36.666Z,612
2018-01-19T07:49:36.439Z,636
2018-01-19T07:50:36.704Z,544
2018-01-19T07:51:51.136Z,456
2018-01-19T07:52:51.391Z,456
2018-01-19T07:53:36.848Z,448
2018-01-19T07:54:36.501Z,448
2018-01-19T07:55:36.786Z,464
2018-01-19T07:56:36.568Z,468
2018-01-19T07:57:36.580Z,484
2018-01-19T07:58:36.859Z,512
2018-01-19T07:59:36.568Z,480
2018-01-19T08:00:36.832Z,508
2018-01-19T08:01:36.378Z,568
2018-01-19T08:02:36.863Z,600
2018-01-19T08:03:37.097Z,680
2018-01-19T08:04:36.889Z,728
2018-01-19T08:06:36.948Z,756
2018-01-19T08:09:37.055Z,1128
2018-01-19T08:10:37.003Z,1144
2018-01-19T08:11:37.016Z,1012
2018-01-19T08:12:37.083Z,868
2018-01-19T08:13:37.069Z,712
2018-01-19T08:14:37.081Z,684
2018-01-19T08:15:36.855Z,796
2018-01-19T08:16:37.117Z,1016
2018-01-19T08:17:51.786Z,1304
2018-01-19T08:18:37.103Z,1556
2018-01-19T08:19:51.667Z,1752
2018-01-19T08:21:37.162Z,1584
2018-01-19T08:22:51.857Z,1524
2018-01-19T08:23:37.173Z,1612
2018-01-19T08:24:52.004Z,1660
2018-01-19T08:25:37.339Z,1660
2018-01-19T08:26:37.227Z,1688
2018-01-19T08:27:37.284Z,1720
2018-01-19T08:28:37.372Z,1708
2018-01-19T08:29:51.961Z,1636
2018-01-19T08:30:37.310Z,1564
2018-01-19T08:31:37.104Z,1560
2018-01-19T08:33:37.326Z,1312
2018-01-19T08:34:37.143Z,1216
2018-01-19T08:35:37.404Z,1336
2018-01-19T08:36:37.142Z,1408
2018-01-19T08:39:51.859Z,848
2018-01-19T08:40:37.206Z,848
2018-01-19T08:41:37.477Z,888
2018-01-19T08:42:37.257Z,1112
2018-01-19T08:43:37.505Z,1532
2018-01-19T08:44:37.616Z,1504
2018-01-19T08:45:37.318Z,1468
2018-01-19T08:46:37.527Z,1492
2018-01-19T08:47:37.558Z,1344
2018-01-19T08:48:51.991Z,1060
2018-01-19T08:49:37.592Z,1000
2018-01-19T08:50:37.120Z,1020
2018-01-19T08:52:37.667Z,1072
2018-01-19T08:53:37.505Z,1016
2018-01-19T08:54:37.766Z,932
2018-01-19T08:55:37.688Z,896
2018-01-19T08:56:37.224Z,848
2018-01-19T08:57:37.450Z,836
2018-01-19T08:58:37.820Z,828
2018-01-19T08:59:37.772Z,812
2018-01-19T09:00:37.529Z,836
2018-01-19T09:01:37.787Z,780
2018-01-19T09:02:52.216Z,756
2018-01-19T09:03:37.538Z,828
2018-01-19T09:04:52.483Z,1184
2018-01-19T09:05:37.822Z,1368
2018-01-19T09:06:37.866Z,1344
2018-01-19T09:07:37.627Z,1364
2018-01-19T09:08:37.868Z,1328
2018-01-19T09:09:37.901Z,1192
2018-01-19T09:10:37.992Z,1056
2018-01-19T09:11:52.590Z,916
2018-01-19T09:12:37.673Z,876
2018-01-19T09:13:37.937Z,860
2018-01-19T09:14:37.729Z,796
2018-01-19T09:15:52.693Z,696
2018-01-19T09:16:38.022Z,660
2018-01-19T09:17:37.790Z,672
2018-01-19T09:18:38.038Z,704
2018-01-19T09:19:38.055Z,776
2018-01-19T09:20:38.067Z,788
2018-01-19T09:21:37.805Z,752
2018-01-19T09:22:38.078Z,724
2018-01-19T09:23:38.115Z,804
2018-01-19T09:24:38.102Z,816
2018-01-19T09:25:38.167Z,864
2018-01-19T09:26:38.157Z,904
2018-01-19T09:27:52.599Z,948
2018-01-19T09:28:38.204Z,892
2018-01-19T09:29:38.205Z,780
2018-01-19T09:30:38.194Z,736
2018-01-19T09:31:38.351Z,672
2018-01-19T09:32:38.278Z,644
2018-01-19T09:33:38.280Z,636
2018-01-19T09:34:38.027Z,664
2018-01-19T09:35:38.059Z,728
2018-01-19T09:36:38.291Z,680
2018-01-19T09:37:38.321Z,604
2018-01-19T09:38:38.338Z,596
2018-01-19T09:39:53.114Z,752
2018-01-19T09:40:38.124Z,844
2018-01-19T09:41:38.401Z,1032
2018-01-19T09:42:38.451Z,1396
2018-01-19T09:43:53.100Z,1700
2018-01-19T09:44:53.220Z,1932
2018-01-19T09:45:38.474Z,1940
2018-01-19T09:46:38.439Z,1868
2018-01-19T09:47:38.452Z,2064
2018-01-19T09:48:38.504Z,1736
2018-01-19T09:49:38.488Z,1560
2018-01-19T09:50:38.560Z,1636
2018-01-19T09:51:38.319Z,1712
2018-01-19T09:52:38.388Z,1928
2018-01-19T09:53:38.566Z,2128
2018-01-19T09:54:38.597Z,2376
2018-01-19T09:55:38.578Z,2508
2018-01-19T09:56:38.656Z,2276
2018-01-19T09:57:38.498Z,2108
2018-01-19T09:58:38.399Z,2120
2018-01-19T09:59:53.079Z,1724
2018-01-19T10:00:38.679Z,1700
2018-01-19T10:01:38.418Z,1752
2018-01-19T10:02:38.443Z,1728
2018-01-19T10:03:38.757Z,1792
2018-01-19T10:04:38.816Z,1936
2018-01-19T10:05:38.500Z,1884
2018-01-19T10:06:53.464Z,2104
2018-01-19T10:07:38.524Z,2152
2018-01-19T10:08:38.525Z,2444
2018-01-19T10:09:38.820Z,2660
2018-01-19T10:10:38.836Z,2924
2018-01-19T10:11:38.616Z,2924
2018-01-19T10:12:38.602Z,2768
2018-01-19T10:13:38.983Z,3388
2018-01-19T10:15:07.990Z,4192
2018-01-19T10:16:38.923Z,3960
2018-01-19T10:17:38.941Z,3644
2018-01-19T10:18:38.467Z,3772
2018-01-19T10:19:53.149Z,3356
2018-01-19T10:20:38.730Z,3200
2018-01-19T10:21:39.008Z,3244
2018-01-19T10:22:39.052Z,3240
2018-01-19T10:23:53.205Z,3608
2018-01-19T10:24:53.476Z,3528
2018-01-19T10:25:53.744Z,3424
2018-01-19T10:26:53.510Z,3324
2018-01-19T10:27:39.081Z,3040
2018-01-19T10:28:39.111Z,2784
2018-01-19T10:29:38.907Z,2596
2018-01-19T10:30:39.122Z,2652
2018-01-19T10:31:39.244Z,2592
2018-01-19T10:32:39.182Z,2436
2018-01-19T10:33:39.276Z,2296
2018-01-19T10:34:38.687Z,2068
2018-01-19T10:35:39.222Z,1884
2018-01-19T10:36:39.281Z,1892
2018-01-19T10:37:53.940Z,2028
2018-01-19T10:38:39.268Z,2112
2018-01-19T10:39:39.294Z,1984
2018-01-19T10:41:39.085Z,2080
2018-01-19T10:42:39.327Z,2100
2018-01-19T10:43:39.101Z,2084
2018-01-19T10:44:39.367Z,1844
2018-01-19T10:45:39.390Z,1484
2018-01-19T10:46:53.560Z,1320
2018-01-19T10:47:39.562Z,1304
2018-01-19T10:48:39.431Z,1392
2018-01-19T10:49:39.456Z,1684
2018-01-19T10:50:39.458Z,1856
2018-01-19T10:51:39.482Z,1688
2018-01-19T10:52:39.242Z,1504
2018-01-19T10:53:39.508Z,1536
2018-01-19T10:54:39.531Z,1452
2018-01-19T10:55:39.588Z,1400
2018-01-19T10:56:39.552Z,1424
2018-01-19T10:58:39.630Z,1444
2018-01-19T11:00:39.376Z,1800
2018-01-19T11:01:39.647Z,1976
2018-01-19T11:02:54.073Z,2200
2018-01-19T11:03:39.396Z,2528
2018-01-19T11:04:39.411Z,3160
2018-01-19T11:05:39.447Z,3768
2018-01-19T11:06:54.140Z,3868
2018-01-19T11:07:39.741Z,3720
2018-01-19T11:09:39.891Z,3472
2018-01-19T11:10:39.550Z,3436
2018-01-19T11:11:39.791Z,3392
2018-01-19T11:12:54.502Z,3156
2018-01-19T11:13:39.585Z,2888
2018-01-19T11:14:39.822Z,2572
2018-01-19T11:15:39.630Z,2544
2018-01-19T11:16:39.974Z,2640
2018-01-19T11:17:39.660Z,2972
2018-01-19T11:18:54.592Z,3280
2018-01-19T11:19:39.894Z,3288
2018-01-19T11:20:39.411Z,3476
2018-01-19T11:21:39.958Z,3668
2018-01-19T11:22:39.986Z,3768
2018-01-19T11:23:40.014Z,3748
2018-01-19T11:25:39.999Z,3672
2018-01-19T11:26:40.056Z,3596
2018-01-19T11:27:54.733Z,3464
2018-01-19T11:29:40.095Z,3240
2018-01-19T11:30:40.106Z,3156
2018-01-19T11:31:54.795Z,3256
2018-01-19T11:32:54.787Z,3160
2018-01-19T11:33:40.188Z,3128
2018-01-19T11:34:54.849Z,2920
2018-01-19T11:35:39.930Z,2948
2018-01-19T11:36:40.212Z,2888
2018-01-19T11:37:39.956Z,2892
2018-01-19T11:38:40.050Z,2956
2018-01-19T11:39:40.244Z,3016
2018-01-19T11:40:39.511Z,3128
2018-01-19T11:41:40.253Z,3140
2018-01-19T11:42:39.779Z,3240
2018-01-19T11:43:40.280Z,3428
2018-01-19T11:44:40.318Z,3568
2018-01-19T11:45:40.075Z,3636
2018-01-19T11:46:40.331Z,3604
2018-01-19T11:47:40.378Z,3484
2018-01-19T11:48:40.472Z,3316
2018-01-19T11:49:55.083Z,3028
2018-01-19T11:50:40.442Z,2804
2018-01-19T11:51:40.446Z,2748
2018-01-19T11:52:40.218Z,2856
2018-01-19T11:53:40.222Z,2788
2018-01-19T11:54:40.502Z,2780
2018-01-19T11:55:40.530Z,2864
2018-01-19T11:56:55.219Z,2820
2018-01-19T11:57:40.278Z,2740
2018-01-19T11:58:54.956Z,2740
2018-01-19T11:59:40.315Z,2700
2018-01-19T12:00:40.580Z,2540
2018-01-19T12:01:55.264Z,2428
2018-01-19T12:02:55.278Z,2332
2018-01-19T12:03:40.649Z,2268
2018-01-19T12:04:40.687Z,2316
2018-01-19T12:05:40.430Z,2464
2018-01-19T12:06:40.712Z,2620
2018-01-19T12:08:40.725Z,2472
2018-01-19T12:09:40.726Z,2352
2018-01-19T12:11:55.172Z,2328
2018-01-19T12:12:40.781Z,2268
2018-01-19T12:13:40.540Z,2096
2018-01-19T12:14:40.798Z,2140
2018-01-19T12:16:40.720Z,2256
2018-01-19T12:17:40.608Z,2136
2018-01-19T12:18:55.553Z,1972
2018-01-19T12:19:55.553Z,1932
2018-01-19T12:20:40.898Z,1976
2018-01-19T12:21:55.584Z,2092
2018-01-19T12:22:40.979Z,2204
2018-01-19T12:23:40.969Z,2336
2018-01-19T12:24:41.047Z,2480
2018-01-19T12:25:40.971Z,2532
2018-01-19T12:26:40.755Z,2660
2018-01-19T12:27:41.119Z,2716
2018-01-19T12:28:41.036Z,2664
2018-01-19T12:29:40.811Z,2328
2018-01-19T12:30:41.154Z,2184
2018-01-19T12:31:40.940Z,2184
2018-01-19T12:32:41.117Z,2224
2018-01-19T12:33:40.866Z,2308
2018-01-19T12:34:55.811Z,2456
2018-01-19T12:35:40.896Z,2504
2018-01-19T12:36:41.283Z,2512
2018-01-19T12:37:55.862Z,2508
2018-01-19T12:38:41.196Z,2504
2018-01-19T12:39:41.233Z,2480
2018-01-19T12:40:41.214Z,2484
2018-01-19T12:41:40.992Z,2476
2018-01-19T12:42:41.303Z,2444
2018-01-19T12:43:40.776Z,2384
2018-01-19T12:44:41.412Z,2244
2018-01-19T12:45:41.090Z,1908
2018-01-19T12:46:41.332Z,1692
2018-01-19T12:47:56.064Z,1612
2018-01-19T12:48:41.115Z,1560
2018-01-19T12:49:41.390Z,1536
2018-01-19T12:50:56.050Z,1224
2018-01-19T12:51:41.460Z,1144
2018-01-19T12:52:56.089Z,1004
2018-01-19T12:53:55.853Z,1068
2018-01-19T12:54:41.437Z,1168
2018-01-19T12:55:41.489Z,1192
2018-01-19T12:56:41.469Z,1260
2018-01-19T12:57:41.516Z,1472
2018-01-19T12:58:41.540Z,1640
2018-01-19T12:59:41.549Z,1692
2018-01-19T13:00:41.315Z,1736
2018-01-19T13:01:41.586Z,1820
2018-01-19T13:03:41.653Z,1976
2018-01-19T13:04:41.619Z,2036
2018-01-19T13:05:41.388Z,1940
2018-01-19T13:06:56.310Z,1824
2018-01-19T13:08:41.819Z,2032
2018-01-19T13:09:56.113Z,2020
2018-01-19T13:10:41.719Z,2008
2018-01-19T13:11:41.469Z,2080
2018-01-19T13:12:41.750Z,2068
2018-01-19T13:13:41.748Z,2140
2018-01-19T13:15:41.795Z,2260
2018-01-19T13:16:41.579Z,2268
2018-01-19T13:17:56.608Z,2284
2018-01-19T13:18:41.840Z,2308
2018-01-19T13:19:41.848Z,2300
2018-01-19T13:20:41.630Z,2376
2018-01-19T13:21:41.686Z,2404
2018-01-19T13:22:41.889Z,2392
2018-01-19T13:23:41.962Z,2400
2018-01-19T13:24:56.364Z,2368
2018-01-19T13:25:41.994Z,2292
2018-01-19T13:26:41.987Z,2176
2018-01-19T13:27:41.495Z,2016
2018-01-19T13:28:41.482Z,1852
2018-01-19T13:29:42.029Z,1704
2018-01-19T13:30:42.062Z,1568
2018-01-19T13:31:42.059Z,1556
2018-01-19T13:33:42.074Z,1408
2018-01-19T13:34:41.843Z,1300
2018-01-19T13:35:41.868Z,1352
2018-01-19T13:37:42.169Z,1268
2018-01-19T13:38:42.181Z,1420
2018-01-19T13:39:41.916Z,1512
2018-01-19T13:40:41.938Z,1512
2018-01-19T13:41:41.998Z,1456
2018-01-19T13:43:41.988Z,1432
2018-01-19T13:44:42.247Z,1312
2018-01-19T13:45:42.322Z,1140
2018-01-19T13:46:42.046Z,1036
2018-01-19T13:47:42.088Z,884
2018-01-19T13:48:42.180Z,832
2018-01-19T13:49:57.026Z,788
2018-01-19T13:50:42.105Z,788
2018-01-19T13:51:42.386Z,916
2018-01-19T13:52:57.064Z,1084
2018-01-19T13:53:42.396Z,1180
2018-01-19T13:54:42.454Z,1232
2018-01-19T13:55:42.437Z,1104
2018-01-19T13:56:57.135Z,856
2018-01-19T13:58:42.488Z,860
2018-01-19T13:59:42.611Z,1140
2018-01-19T14:00:42.503Z,1036
2018-01-19T14:01:42.281Z,908
2018-01-19T14:02:42.563Z,912
2018-01-19T14:03:42.107Z,856
2018-01-19T14:04:42.420Z,864
2018-01-19T14:05:42.612Z,1008
2018-01-19T14:06:42.672Z,1112
2018-01-19T14:07:42.660Z,1164
2018-01-19T14:08:42.663Z,1116
2018-01-19T14:09:42.674Z,1060
2018-01-19T14:10:42.683Z,1060
2018-01-19T14:11:42.701Z,1032
2018-01-19T14:12:57.381Z,920
2018-01-19T14:13:42.765Z,852
2018-01-19T14:14:42.480Z,740
2018-01-19T14:15:42.361Z,720
2018-01-19T14:16:42.953Z,744
2018-01-19T14:17:42.795Z,736
2018-01-19T14:18:42.834Z,792
2018-01-19T14:19:57.512Z,892
2018-01-19T14:20:57.277Z,924
2018-01-19T14:21:42.643Z,924
2018-01-19T14:22:57.574Z,924
2018-01-19T14:23:42.892Z,920
2018-01-19T14:24:57.578Z,912
2018-01-19T14:25:42.951Z,916
2018-01-19T14:26:42.943Z,904
2018-01-19T14:27:42.961Z,852
2018-01-19T14:28:57.659Z,812
2018-01-19T14:29:42.511Z,808
2018-01-19T14:30:43.019Z,816
2018-01-19T14:31:42.784Z,804
2018-01-19T14:32:42.783Z,780
2018-01-19T14:33:43.055Z,744
2018-01-19T14:34:43.072Z,748
2018-01-19T14:35:43.181Z,776
2018-01-19T14:36:43.119Z,800
2018-01-19T14:37:57.799Z,800
2018-01-19T14:38:43.115Z,788
2018-01-19T14:39:43.131Z,788
2018-01-19T14:40:43.196Z,768
2018-01-19T14:41:43.170Z,748
2018-01-19T14:42:42.687Z,724
2018-01-19T14:43:43.239Z,688
2018-01-19T14:44:57.754Z,668
2018-01-19T14:46:57.438Z,620
2018-01-19T14:47:43.285Z,596
2018-01-19T14:48:43.297Z,576
2018-01-19T14:49:43.309Z,548
2018-01-19T14:50:43.176Z,532
2018-01-19T14:51:43.484Z,512
2018-01-19T14:52:43.094Z,488
2018-01-19T14:53:43.393Z,460
2018-01-19T14:54:43.400Z,436
2018-01-19T14:55:43.240Z,412
2018-01-19T14:56:57.837Z,388
2018-01-19T14:57:42.918Z,376
2018-01-19T14:58:43.458Z,360
2018-01-19T14:59:58.138Z,336
2018-01-19T15:00:43.240Z,320
2018-01-19T15:01:43.555Z,296
2018-01-19T15:02:58.190Z,272
2018-01-19T15:03:43.551Z,256
2018-01-19T15:05:43.574Z,228
2018-01-19T15:06:58.002Z,208